Time;durP1;ratioP1;P1;durP2;ratioP2;P2;SDS_P1;SDS_P2;PMS_P1;PMS_P2;Temp;Humidity;BMP_temperature;BMP_pressure;BME280_temperature;BME280_humidity;BME280_pressure;Samples;Min_cycle;Max_cycle;Signal;HPM_P1;HPM_P2
2021/06/20 00:00:17;;;;;;;8.98;2.25;;;;;;;;;;5106220;27;20195;-61
2021/06/20 00:02:44;;;;;;;4.65;2.08;;;;;;;;;;5103255;27;20191;-61
2021/06/20 00:05:12;;;;;;;4.28;2.10;;;;;;;;;;5110806;27;20207;-61
2021/06/20 00:07:41;;;;;;;2.22;2.03;;;;;;;;;;5112548;27;20328;-60
2021/06/20 00:10:08;;;;;;;6.07;2.22;;;;;;;;;;5085093;28;20183;-60
2021/06/20 00:12:38;;;;;;;4.45;2.30;;;;;;;;;;5103857;27;20203;-60
2021/06/20 00:15:07;;;;;;;2.00;1.88;;;;;;;;;;5086790;28;20806;-61
2021/06/20 00:17:33;;;;;;;3.70;2.30;;;;;;;;;;5112637;27;20792;-62
2021/06/20 00:19:58;;;;;;;5.05;2.30;;;;;;;;;;5106891;27;20274;-62
2021/06/20 00:22:24;;;;;;;3.35;2.35;;;;;;;;;;5108447;27;20187;-62
2021/06/20 00:24:49;;;;;;;3.88;2.50;;;;;;;;;;5102905;27;20209;-61
2021/06/20 00:27:14;;;;;;;2.55;2.35;;;;;;;;;;5094840;28;22043;-62
2021/06/20 00:29:40;;;;;;;4.30;2.30;;;;;;;;;;5103565;28;20188;-61
2021/06/20 00:32:05;;;;;;;3.08;2.30;;;;;;;;;;5088163;28;20218;-62
2021/06/20 00:34:30;;;;;;;6.90;2.63;;;;;;;;;;5099126;28;20259;-61
2021/06/20 00:37:01;;;;;;;2.83;2.35;;;;;;;;;;5102857;28;20223;-63
2021/06/20 00:39:27;;;;;;;2.50;1.90;;;;;;;;;;5107194;28;20247;-61
2021/06/20 00:41:52;;;;;;;3.22;2.40;;;;;;;;;;5105376;27;20263;-62
2021/06/20 00:44:17;;;;;;;3.88;2.15;;;;;;;;;;5094305;28;20213;-61
2021/06/20 00:46:42;;;;;;;3.20;2.28;;;;;;;;;;5103302;28;20224;-61
2021/06/20 00:49:08;;;;;;;4.05;2.70;;;;;;;;;;5101090;28;20257;-61
2021/06/20 00:51:34;;;;;;;3.53;2.20;;;;;;;;;;5111882;27;20340;-62
2021/06/20 00:53:59;;;;;;;2.95;2.40;;;;;;;;;;5087110;27;20264;-62
2021/06/20 00:56:25;;;;;;;3.42;2.50;;;;;;;;;;5103623;28;20188;-61
2021/06/20 00:59:01;;;;;;;2.38;2.17;;;;;;;;;;5102654;27;20219;-63
2021/06/20 01:01:28;;;;;;;3.97;2.53;;;;;;;;;;5111483;27;20180;-60
2021/06/20 01:03:54;;;;;;;4.25;2.33;;;;;;;;;;5108492;27;20211;-61
2021/06/20 01:06:19;;;;;;;2.55;2.35;;;;;;;;;;5093274;28;20705;-61
2021/06/20 01:08:44;;;;;;;3.83;2.40;;;;;;;;;;5107480;27;20187;-61
2021/06/20 01:11:09;;;;;;;3.75;3.00;;;;;;;;;;5106623;27;20196;-63
2021/06/20 01:13:35;;;;;;;5.43;2.75;;;;;;;;;;5105068;27;20235;-62
2021/06/20 01:16:00;;;;;;;5.63;2.53;;;;;;;;;;5108140;27;20187;-60
2021/06/20 01:18:26;;;;;;;4.85;2.50;;;;;;;;;;5111942;27;20183;-61
2021/06/20 01:20:51;;;;;;;3.58;2.58;;;;;;;;;;5105945;27;20188;-60
2021/06/20 01:23:16;;;;;;;5.38;3.03;;;;;;;;;;5106153;27;20586;-62
2021/06/20 01:25:43;;;;;;;4.65;2.35;;;;;;;;;;5108992;28;20547;-61
2021/06/20 01:28:10;;;;;;;4.85;2.80;;;;;;;;;;5095341;28;20781;-61
2021/06/20 01:30:38;;;;;;;4.88;3.15;;;;;;;;;;5100442;28;20181;-61
2021/06/20 01:33:06;;;;;;;3.67;2.65;;;;;;;;;;5102348;28;20301;-61
2021/06/20 01:35:32;;;;;;;3.13;2.60;;;;;;;;;;5100259;28;20191;-59
2021/06/20 01:38:00;;;;;;;2.90;2.60;;;;;;;;;;5104536;28;20191;-61
2021/06/20 01:40:25;;;;;;;4.40;3.00;;;;;;;;;;5100649;28;20237;-61
2021/06/20 01:42:52;;;;;;;5.75;3.00;;;;;;;;;;5103969;28;20279;-61
2021/06/20 01:45:19;;;;;;;4.10;3.40;;;;;;;;;;5086513;28;20286;-61
2021/06/20 01:47:45;;;;;;;3.15;2.85;;;;;;;;;;5107147;28;20317;-62
2021/06/20 01:50:13;;;;;;;3.75;2.90;;;;;;;;;;5089667;28;20192;-61
2021/06/20 01:52:39;;;;;;;4.07;3.33;;;;;;;;;;5103394;28;20561;-61
2021/06/20 01:55:06;;;;;;;4.22;3.00;;;;;;;;;;5079846;28;20209;-61
2021/06/20 01:57:34;;;;;;;4.03;3.10;;;;;;;;;;5093953;28;20324;-62
2021/06/20 02:00:00;;;;;;;3.65;3.35;;;;;;;;;;5113368;28;20187;-64
2021/06/20 02:02:27;;;;;;;5.57;3.47;;;;;;;;;;5081872;28;20180;-62
2021/06/20 02:04:55;;;;;;;6.93;3.90;;;;;;;;;;5105846;28;20664;-63
2021/06/20 02:07:20;;;;;;;3.92;3.45;;;;;;;;;;5097164;28;20643;-61
2021/06/20 02:09:47;;;;;;;4.55;3.60;;;;;;;;;;5101576;28;20195;-61
2021/06/20 02:12:14;;;;;;;5.38;4.07;;;;;;;;;;5088468;28;20200;-62
2021/06/20 02:14:40;;;;;;;4.57;4.10;;;;;;;;;;5081790;28;20696;-61
2021/06/20 02:17:27;;;;;;;6.68;3.70;;;;;;;;;;5104390;28;20188;-61
2021/06/20 02:19:55;;;;;;;7.00;3.63;;;;;;;;;;5107274;28;20188;-61
2021/06/20 02:22:21;;;;;;;3.92;3.60;;;;;;;;;;5112470;27;20540;-61
2021/06/20 02:24:47;;;;;;;3.63;2.88;;;;;;;;;;5088662;28;20216;-61
2021/06/20 02:27:14;;;;;;;6.32;3.55;;;;;;;;;;5097726;27;20710;-61
2021/06/20 02:29:41;;;;;;;5.78;3.67;;;;;;;;;;5105016;27;20184;-60
2021/06/20 02:32:07;;;;;;;5.88;3.40;;;;;;;;;;5121531;22;20714;-61
2021/06/20 02:34:32;;;;;;;6.32;3.60;;;;;;;;;;5088016;28;20205;-59
2021/06/20 02:36:57;;;;;;;5.25;3.65;;;;;;;;;;5056684;28;20205;-60
2021/06/20 02:39:23;;;;;;;4.47;3.33;;;;;;;;;;5076909;28;20225;-60
2021/06/20 02:41:50;;;;;;;3.80;3.40;;;;;;;;;;5076688;28;20205;-59
2021/06/20 02:44:19;;;;;;;4.53;4.13;;;;;;;;;;5067318;28;20630;-61
2021/06/20 02:46:45;;;;;;;3.88;2.83;;;;;;;;;;5066174;28;20174;-60
2021/06/20 02:49:11;;;;;;;4.90;3.70;;;;;;;;;;5068804;28;20185;-59
2021/06/20 02:51:37;;;;;;;4.20;3.60;;;;;;;;;;5066162;28;20231;-61
2021/06/20 02:54:03;;;;;;;3.50;3.15;;;;;;;;;;5066855;28;20275;-60
2021/06/20 02:56:28;;;;;;;4.45;3.42;;;;;;;;;;5067648;28;20217;-60
2021/06/20 02:58:53;;;;;;;7.60;3.90;;;;;;;;;;5035406;28;20291;-60
2021/06/20 03:01:19;;;;;;;4.63;3.72;;;;;;;;;;5067867;28;20201;-59
2021/06/20 03:03:44;;;;;;;4.20;3.80;;;;;;;;;;5044737;28;20883;-59
2021/06/20 03:06:11;;;;;;;5.57;4.60;;;;;;;;;;5067519;28;20465;-60
2021/06/20 03:08:36;;;;;;;4.78;4.20;;;;;;;;;;5045640;28;20177;-61
2021/06/20 03:11:01;;;;;;;5.10;4.60;;;;;;;;;;5068688;28;20700;-60
2021/06/20 03:13:28;;;;;;;6.00;4.82;;;;;;;;;;5067921;28;20204;-60
2021/06/20 03:15:53;;;;;;;5.03;4.47;;;;;;;;;;5069173;28;20302;-60
2021/06/20 03:18:18;;;;;;;8.55;4.88;;;;;;;;;;5067833;28;20799;-60
2021/06/20 03:20:44;;;;;;;6.20;4.68;;;;;;;;;;5069326;28;20197;-61
2021/06/20 03:23:11;;;;;;;5.82;4.38;;;;;;;;;;5049384;28;20750;-60
2021/06/20 03:25:38;;;;;;;5.50;4.47;;;;;;;;;;5068921;28;20220;-60
2021/06/20 03:28:03;;;;;;;5.97;4.85;;;;;;;;;;5069159;28;20189;-60
2021/06/20 03:30:29;;;;;;;5.35;4.82;;;;;;;;;;5066232;28;20350;-61
2021/06/20 03:32:54;;;;;;;4.90;4.40;;;;;;;;;;5068413;28;20700;-61
2021/06/20 03:35:19;;;;;;;18.98;5.15;;;;;;;;;;5051623;28;20672;-60
2021/06/20 03:37:45;;;;;;;5.60;4.75;;;;;;;;;;5065200;28;20243;-59
2021/06/20 03:40:11;;;;;;;9.63;5.38;;;;;;;;;;5065915;28;20193;-60
2021/06/20 03:42:37;;;;;;;9.15;5.18;;;;;;;;;;5068466;28;20213;-61
2021/06/20 03:45:05;;;;;;;8.27;4.45;;;;;;;;;;5060336;28;20193;-60
2021/06/20 03:47:31;;;;;;;6.40;4.78;;;;;;;;;;5048591;28;20746;-60
2021/06/20 03:49:57;;;;;;;5.25;4.13;;;;;;;;;;5066333;28;20185;-59
2021/06/20 03:52:22;;;;;;;9.95;4.10;;;;;;;;;;5067790;28;20209;-59
2021/06/20 03:54:50;;;;;;;5.30;4.15;;;;;;;;;;5049109;28;20189;-59
2021/06/20 03:57:19;;;;;;;7.72;4.28;;;;;;;;;;5067749;28;20652;-60
2021/06/20 03:59:45;;;;;;;4.85;3.75;;;;;;;;;;5065979;28;20190;-60
2021/06/20 04:02:11;;;;;;;9.45;4.00;;;;;;;;;;5063620;28;20202;-60
2021/06/20 04:04:39;;;;;;;9.05;4.28;;;;;;;;;;5067620;28;20191;-59
2021/06/20 04:07:05;;;;;;;3.83;2.80;;;;;;;;;;5067138;28;20260;-60
2021/06/20 04:09:30;;;;;;;7.75;2.38;;;;;;;;;;5066507;28;20733;-59
2021/06/20 04:11:55;;;;;;;8.20;2.50;;;;;;;;;;5063522;28;20225;-59
2021/06/20 04:14:20;;;;;;;5.22;2.30;;;;;;;;;;5060484;28;20193;-60
2021/06/20 04:16:46;;;;;;;6.55;1.92;;;;;;;;;;5066283;28;20177;-60
2021/06/20 04:19:11;;;;;;;4.00;1.60;;;;;;;;;;5067743;28;20530;-59
2021/06/20 04:21:36;;;;;;;7.50;1.95;;;;;;;;;;5063852;28;20209;-60
2021/06/20 04:24:02;;;;;;;2.75;1.50;;;;;;;;;;5065951;28;20661;-59
2021/06/20 04:26:27;;;;;;;5.60;1.60;;;;;;;;;;5063372;28;20554;-59
2021/06/20 04:28:52;;;;;;;3.75;1.88;;;;;;;;;;5067713;28;20560;-59
2021/06/20 04:31:18;;;;;;;3.80;1.77;;;;;;;;;;5063632;28;20293;-60
2021/06/20 04:33:43;;;;;;;4.05;1.60;;;;;;;;;;5065087;28;20193;-59
2021/06/20 04:36:09;;;;;;;5.35;2.03;;;;;;;;;;5063240;28;20270;-60
2021/06/20 04:38:34;;;;;;;6.22;2.30;;;;;;;;;;5064691;28;22115;-61
2021/06/20 04:41:06;;;;;;;2.75;2.00;;;;;;;;;;5063507;28;20661;-60
2021/06/20 04:46:21;;;;;;;5.40;1.83;;;;;;;;;;5067058;28;20905;-60
2021/06/20 04:48:47;;;;;;;6.50;2.00;;;;;;;;;;5053033;28;20711;-60
2021/06/20 04:51:12;;;;;;;8.93;2.20;;;;;;;;;;5066109;28;20205;-60
2021/06/20 04:53:37;;;;;;;6.65;2.65;;;;;;;;;;5046942;28;20700;-59
2021/06/20 04:56:03;;;;;;;8.63;2.90;;;;;;;;;;5066444;28;20189;-59
2021/06/20 04:58:28;;;;;;;7.78;2.55;;;;;;;;;;5066187;28;20185;-60
2021/06/20 05:00:54;;;;;;;5.32;2.25;;;;;;;;;;5061751;28;20197;-59
2021/06/20 05:03:19;;;;;;;5.28;2.70;;;;;;;;;;5059949;28;20240;-60
2021/06/20 05:05:44;;;;;;;5.88;2.50;;;;;;;;;;5058774;28;20213;-60
2021/06/20 05:08:10;;;;;;;10.13;2.42;;;;;;;;;;5060878;28;20262;-60
2021/06/20 05:10:35;;;;;;;4.88;2.35;;;;;;;;;;5058806;28;20653;-61
2021/06/20 05:13:00;;;;;;;5.10;2.05;;;;;;;;;;5057531;28;20220;-60
2021/06/20 05:15:26;;;;;;;8.90;2.63;;;;;;;;;;5060401;28;20251;-60
2021/06/20 05:17:53;;;;;;;8.43;2.55;;;;;;;;;;5062236;28;20208;-60
2021/06/20 05:20:18;;;;;;;6.90;2.92;;;;;;;;;;5067463;28;20181;-59
2021/06/20 05:22:43;;;;;;;6.53;2.75;;;;;;;;;;5064179;28;20774;-60
2021/06/20 05:25:09;;;;;;;7.53;2.63;;;;;;;;;;5054099;28;20189;-59
2021/06/20 05:27:34;;;;;;;7.72;2.40;;;;;;;;;;5060339;28;20182;-60
2021/06/20 05:29:59;;;;;;;5.15;2.20;;;;;;;;;;5058693;28;20197;-60
2021/06/20 05:32:25;;;;;;;8.18;2.20;;;;;;;;;;5063429;28;20214;-61
2021/06/20 05:34:50;;;;;;;10.07;2.60;;;;;;;;;;5067665;28;20274;-60
2021/06/20 05:37:15;;;;;;;8.15;2.40;;;;;;;;;;5054896;28;20556;-60
2021/06/20 05:39:40;;;;;;;6.13;2.17;;;;;;;;;;5064122;28;20192;-59
2021/06/20 05:42:06;;;;;;;7.63;2.38;;;;;;;;;;5064702;28;20205;-60
2021/06/20 05:44:31;;;;;;;5.28;2.45;;;;;;;;;;5064145;28;20238;-59
2021/06/20 05:46:58;;;;;;;7.18;3.13;;;;;;;;;;5066863;28;20200;-59
2021/06/20 05:49:23;;;;;;;7.28;1.92;;;;;;;;;;5050210;28;20850;-60
2021/06/20 05:51:48;;;;;;;9.02;2.20;;;;;;;;;;5062146;28;20339;-59
2021/06/20 05:54:14;;;;;;;9.88;2.88;;;;;;;;;;5043537;28;20714;-60
2021/06/20 05:56:39;;;;;;;6.85;2.72;;;;;;;;;;5068034;28;20276;-60
2021/06/20 05:59:05;;;;;;;9.82;2.85;;;;;;;;;;5062852;28;20169;-60
2021/06/20 06:01:30;;;;;;;5.75;2.38;;;;;;;;;;5069364;28;20259;-60
2021/06/20 06:03:56;;;;;;;7.28;2.72;;;;;;;;;;5051312;28;20205;-61
2021/06/20 06:06:21;;;;;;;7.78;3.40;;;;;;;;;;5053245;28;20201;-60
2021/06/20 06:08:46;;;;;;;4.45;2.70;;;;;;;;;;5049974;28;20193;-60
2021/06/20 06:11:11;;;;;;;8.98;2.97;;;;;;;;;;5054067;28;20205;-60
2021/06/20 06:13:37;;;;;;;12.13;2.85;;;;;;;;;;5065354;28;20221;-59
2021/06/20 06:16:02;;;;;;;4.60;2.65;;;;;;;;;;5068269;28;20191;-59
2021/06/20 06:18:28;;;;;;;6.00;2.97;;;;;;;;;;5068687;28;20603;-60
2021/06/20 06:20:53;;;;;;;6.13;2.60;;;;;;;;;;5047883;28;20185;-59
2021/06/20 06:23:18;;;;;;;5.75;3.05;;;;;;;;;;5051168;28;20707;-59
2021/06/20 06:25:44;;;;;;;6.40;3.05;;;;;;;;;;5067677;28;20708;-59
2021/06/20 06:28:09;;;;;;;5.03;2.80;;;;;;;;;;5069635;28;20185;-58
2021/06/20 06:30:34;;;;;;;8.23;3.28;;;;;;;;;;5065945;28;20240;-58
2021/06/20 06:33:00;;;;;;;6.30;3.03;;;;;;;;;;5066126;28;20209;-59
2021/06/20 06:35:25;;;;;;;5.95;2.88;;;;;;;;;;5048763;28;20715;-58
2021/06/20 06:37:51;;;;;;;5.05;3.10;;;;;;;;;;5054117;28;20192;-59
2021/06/20 06:40:17;;;;;;;6.25;3.15;;;;;;;;;;5065779;28;20247;-59
2021/06/20 06:42:43;;;;;;;7.70;3.53;;;;;;;;;;5070131;28;20219;-59
2021/06/20 06:45:09;;;;;;;5.25;3.65;;;;;;;;;;5062107;28;20642;-59
2021/06/20 06:47:34;;;;;;;6.30;3.78;;;;;;;;;;5043606;28;20621;-58
2021/06/20 06:50:01;;;;;;;7.30;4.10;;;;;;;;;;5066764;28;20226;-59
2021/06/20 06:52:26;;;;;;;6.15;3.53;;;;;;;;;;5063462;28;20261;-60
2021/06/20 06:54:51;;;;;;;5.22;3.50;;;;;;;;;;5068567;28;20205;-58
2021/06/20 06:57:21;;;;;;;6.80;3.58;;;;;;;;;;5065383;28;20189;-59
2021/06/20 06:59:48;;;;;;;7.82;4.07;;;;;;;;;;5066951;28;20609;-58
2021/06/20 07:02:13;;;;;;;7.10;4.03;;;;;;;;;;5064797;28;20224;-58
2021/06/20 07:04:39;;;;;;;6.55;3.95;;;;;;;;;;5068214;28;20641;-60
2021/06/20 07:07:04;;;;;;;8.30;4.82;;;;;;;;;;5069608;28;20185;-59
2021/06/20 07:09:30;;;;;;;5.88;4.07;;;;;;;;;;5066661;28;20207;-58
2021/06/20 07:11:55;;;;;;;7.00;4.18;;;;;;;;;;5065531;28;20212;-58
2021/06/20 07:14:20;;;;;;;5.20;4.28;;;;;;;;;;5050091;28;20197;-58
2021/06/20 07:16:46;;;;;;;8.43;4.05;;;;;;;;;;5056246;28;20184;-58
2021/06/20 07:19:11;;;;;;;8.95;4.50;;;;;;;;;;5065565;28;20185;-58
2021/06/20 07:21:36;;;;;;;7.15;4.20;;;;;;;;;;5068733;28;20204;-59
2021/06/20 07:24:03;;;;;;;7.57;4.43;;;;;;;;;;5053129;28;20208;-59
2021/06/20 07:26:28;;;;;;;6.32;4.25;;;;;;;;;;5065683;28;20565;-60
2021/06/20 07:28:54;;;;;;;7.68;3.90;;;;;;;;;;5052619;28;20196;-59
2021/06/20 07:31:19;;;;;;;5.28;4.00;;;;;;;;;;5065813;28;20213;-60
2021/06/20 07:33:45;;;;;;;5.72;3.67;;;;;;;;;;5047491;28;20871;-60
2021/06/20 07:36:11;;;;;;;7.07;4.03;;;;;;;;;;5046094;28;20869;-60
2021/06/20 07:38:36;;;;;;;7.53;4.47;;;;;;;;;;5064545;28;20185;-60
2021/06/20 07:41:02;;;;;;;9.38;4.60;;;;;;;;;;5065347;28;20196;-61
2021/06/20 07:43:27;;;;;;;5.93;4.22;;;;;;;;;;5066673;28;20189;-60
2021/06/20 07:45:55;;;;;;;7.50;4.35;;;;;;;;;;5064996;28;20193;-61
2021/06/20 07:48:23;;;;;;;9.95;5.10;;;;;;;;;;5063465;28;20732;-62
2021/06/20 07:50:48;;;;;;;8.68;4.65;;;;;;;;;;5051235;28;20208;-61
2021/06/20 07:53:13;;;;;;;7.93;4.65;;;;;;;;;;5052378;28;20232;-62
2021/06/20 07:55:39;;;;;;;8.45;4.82;;;;;;;;;;5063092;28;20829;-58
2021/06/20 07:58:04;;;;;;;10.77;4.90;;;;;;;;;;5062852;28;20272;-58
2021/06/20 08:00:30;;;;;;;8.98;5.55;;;;;;;;;;5062578;28;20230;-60
2021/06/20 08:02:55;;;;;;;7.10;5.10;;;;;;;;;;5057248;28;20201;-56
2021/06/20 08:05:20;;;;;;;9.10;5.35;;;;;;;;;;5061944;28;20246;-58
2021/06/20 08:07:46;;;;;;;8.25;4.55;;;;;;;;;;5065130;28;20189;-58
2021/06/20 08:10:11;;;;;;;9.48;5.30;;;;;;;;;;5063373;28;20902;-58
2021/06/20 08:12:37;;;;;;;9.38;4.95;;;;;;;;;;5063057;28;20216;-60
2021/06/20 08:15:02;;;;;;;9.13;4.43;;;;;;;;;;5065021;28;20189;-59
2021/06/20 08:17:28;;;;;;;7.47;4.22;;;;;;;;;;5061967;28;20186;-59
2021/06/20 08:19:54;;;;;;;9.85;4.40;;;;;;;;;;5063254;28;21813;-60
2021/06/20 08:22:19;;;;;;;7.82;4.50;;;;;;;;;;5050750;28;20209;-59
2021/06/20 08:24:46;;;;;;;7.82;4.15;;;;;;;;;;5065261;28;20189;-59
2021/06/20 08:27:12;;;;;;;8.48;4.50;;;;;;;;;;5064382;28;20185;-55
2021/06/20 08:29:37;;;;;;;6.55;3.92;;;;;;;;;;5066016;28;20185;-58
2021/06/20 08:32:04;;;;;;;5.72;4.00;;;;;;;;;;5062994;28;20201;-57
2021/06/20 08:34:30;;;;;;;7.88;4.47;;;;;;;;;;5101143;22;20235;-58
2021/06/20 08:37:00;;;;;;;6.78;4.18;;;;;;;;;;5081281;28;20181;-58
2021/06/20 08:39:25;;;;;;;8.95;4.20;;;;;;;;;;5082672;28;20671;-58
2021/06/20 08:41:51;;;;;;;9.23;4.90;;;;;;;;;;5083454;28;20275;-57
2021/06/20 08:44:35;;;;;;;10.88;4.40;;;;;;;;;;5057108;28;20214;-58
2021/06/20 08:47:03;;;;;;;10.13;4.53;;;;;;;;;;5063148;28;20276;-58
2021/06/20 08:49:32;;;;;;;6.45;4.07;;;;;;;;;;5026239;28;20273;-59
2021/06/20 08:51:59;;;;;;;7.80;4.22;;;;;;;;;;5021605;28;20204;-59
2021/06/20 08:54:25;;;;;;;9.15;4.22;;;;;;;;;;5056032;28;20689;-59
2021/06/20 08:56:52;;;;;;;8.30;4.57;;;;;;;;;;5057912;28;20208;-58
2021/06/20 08:59:19;;;;;;;7.75;4.38;;;;;;;;;;5058900;28;20791;-59
2021/06/20 09:01:45;;;;;;;7.85;4.45;;;;;;;;;;5065146;28;20195;-60
2021/06/20 09:04:11;;;;;;;7.78;3.72;;;;;;;;;;5060273;28;20197;-60
2021/06/20 09:06:37;;;;;;;6.95;3.83;;;;;;;;;;5048002;28;20186;-58
2021/06/20 09:09:07;;;;;;;5.70;4.15;;;;;;;;;;5062272;28;20185;-59
2021/06/20 09:11:40;;;;;;;7.63;3.88;;;;;;;;;;5064290;28;20205;-58
2021/06/20 09:14:11;;;;;;;6.50;4.15;;;;;;;;;;5054320;28;20272;-58
2021/06/20 09:16:53;;;;;;;7.03;4.25;;;;;;;;;;5060591;28;20184;-59
2021/06/20 09:19:32;;;;;;;6.72;4.40;;;;;;;;;;5059532;28;20218;-58
2021/06/20 09:22:04;;;;;;;8.35;4.38;;;;;;;;;;5061713;28;20189;-58
2021/06/20 09:24:30;;;;;;;6.80;4.00;;;;;;;;;;5045906;28;20201;-58
2021/06/20 09:26:57;;;;;;;6.78;4.07;;;;;;;;;;5049195;28;20195;-58
2021/06/20 09:29:29;;;;;;;6.90;3.95;;;;;;;;;;5062010;28;20220;-57
2021/06/20 09:31:55;;;;;;;5.30;3.88;;;;;;;;;;5046252;28;20775;-58
2021/06/20 09:34:20;;;;;;;9.05;4.30;;;;;;;;;;5055808;28;20312;-58
2021/06/20 09:36:46;;;;;;;8.07;3.83;;;;;;;;;;5068666;28;20187;-57
2021/06/20 09:39:23;;;;;;;7.38;3.78;;;;;;;;;;5060351;28;20613;-57
2021/06/20 09:42:02;;;;;;;8.65;3.55;;;;;;;;;;5058828;28;20192;-58
2021/06/20 09:44:33;;;;;;;8.55;4.25;;;;;;;;;;5060512;28;20291;-57
2021/06/20 09:46:58;;;;;;;5.03;3.58;;;;;;;;;;5046991;28;20173;-58
2021/06/20 09:49:28;;;;;;;7.13;3.65;;;;;;;;;;5053742;28;20189;-56
2021/06/20 09:51:54;;;;;;;6.55;3.83;;;;;;;;;;5059702;28;20800;-58
2021/06/20 09:54:29;;;;;;;5.82;3.53;;;;;;;;;;5047127;28;20712;-57
2021/06/20 09:56:55;;;;;;;6.13;3.92;;;;;;;;;;5055194;28;20244;-59
2021/06/20 09:59:30;;;;;;;5.47;3.65;;;;;;;;;;5065379;28;20177;-57
2021/06/20 10:02:06;;;;;;;6.25;3.50;;;;;;;;;;5045998;28;20182;-58
2021/06/20 10:04:34;;;;;;;6.32;3.65;;;;;;;;;;5054994;28;20248;-58
2021/06/20 10:06:59;;;;;;;7.07;3.92;;;;;;;;;;5051750;28;20185;-58
2021/06/20 10:09:25;;;;;;;5.97;3.70;;;;;;;;;;5058805;28;20185;-58
2021/06/20 10:11:50;;;;;;;7.35;3.30;;;;;;;;;;5057427;28;20546;-59
2021/06/20 10:14:15;;;;;;;6.05;3.30;;;;;;;;;;5061694;28;20250;-58
2021/06/20 10:16:48;;;;;;;5.53;3.67;;;;;;;;;;5060782;28;20200;-59
2021/06/20 10:19:17;;;;;;;7.00;4.28;;;;;;;;;;5049621;28;20185;-58
2021/06/20 10:21:44;;;;;;;6.45;3.97;;;;;;;;;;5050964;28;20213;-59
2021/06/20 10:24:18;;;;;;;6.10;4.00;;;;;;;;;;5055328;28;20296;-58
2021/06/20 10:27:03;;;;;;;6.53;3.90;;;;;;;;;;5049985;28;20208;-59
2021/06/20 10:29:37;;;;;;;6.43;3.58;;;;;;;;;;5056768;28;20182;-58
2021/06/20 10:32:24;;;;;;;5.55;3.90;;;;;;;;;;5053528;28;20206;-58
2021/06/20 10:35:00;;;;;;;6.63;3.72;;;;;;;;;;5056274;28;20210;-58
2021/06/20 10:37:30;;;;;;;7.85;3.78;;;;;;;;;;5061007;28;20217;-57
2021/06/20 10:39:56;;;;;;;7.13;4.28;;;;;;;;;;5063397;28;20201;-59
2021/06/20 10:42:38;;;;;;;7.35;3.83;;;;;;;;;;5062214;28;20732;-58
2021/06/20 10:45:06;;;;;;;4.60;3.72;;;;;;;;;;5067876;28;20985;-58
2021/06/20 10:47:42;;;;;;;5.90;3.70;;;;;;;;;;5066336;28;20227;-58
2021/06/20 10:50:07;;;;;;;5.30;3.85;;;;;;;;;;5062603;28;20657;-57
2021/06/20 10:52:33;;;;;;;6.90;4.32;;;;;;;;;;5063414;28;20220;-58
2021/06/20 10:55:15;;;;;;;5.80;4.03;;;;;;;;;;5060838;28;20204;-59
2021/06/20 10:57:54;;;;;;;5.43;3.13;;;;;;;;;;5065722;28;20201;-58
2021/06/20 11:00:36;;;;;;;6.88;3.65;;;;;;;;;;5049355;28;20201;-57
2021/06/20 11:03:34;;;;;;;7.28;3.97;;;;;;;;;;5067741;28;20197;-58
2021/06/20 11:06:13;;;;;;;5.57;3.25;;;;;;;;;;5012020;28;20292;-58
2021/06/20 11:08:58;;;;;;;6.15;3.40;;;;;;;;;;5069945;28;20184;-57
2021/06/20 11:11:33;;;;;;;6.07;3.58;;;;;;;;;;5035140;28;20823;-58
2021/06/20 11:13:58;;;;;;;5.57;3.67;;;;;;;;;;5059919;28;20192;-57
2021/06/20 11:16:29;;;;;;;4.80;3.37;;;;;;;;;;5062114;28;20204;-58
2021/06/20 11:19:12;;;;;;;5.15;3.22;;;;;;;;;;5063048;28;20430;-57
2021/06/20 11:22:02;;;;;;;8.65;3.30;;;;;;;;;;5056767;28;20209;-58
2021/06/20 11:24:29;;;;;;;4.18;3.42;;;;;;;;;;5053975;28;20210;-58
2021/06/20 11:26:58;;;;;;;5.82;3.50;;;;;;;;;;5041021;28;20197;-57
2021/06/20 11:29:25;;;;;;;6.07;3.75;;;;;;;;;;5057192;28;20194;-57
2021/06/20 11:31:52;;;;;;;6.00;3.20;;;;;;;;;;5055403;28;20221;-58
2021/06/20 11:34:18;;;;;;;4.75;3.50;;;;;;;;;;5055452;28;20221;-58
2021/06/20 11:36:43;;;;;;;6.53;4.00;;;;;;;;;;5058222;28;20193;-58
2021/06/20 11:39:13;;;;;;;5.88;3.45;;;;;;;;;;5056150;28;20247;-58
2021/06/20 11:41:41;;;;;;;7.55;3.45;;;;;;;;;;5045047;28;20178;-58
2021/06/20 11:44:06;;;;;;;7.20;3.53;;;;;;;;;;5056799;28;20268;-57
2021/06/20 11:46:34;;;;;;;5.82;3.38;;;;;;;;;;5060067;28;20193;-57
2021/06/20 11:49:02;;;;;;;7.55;3.30;;;;;;;;;;5059177;28;20189;-58
2021/06/20 11:51:30;;;;;;;3.80;3.30;;;;;;;;;;5064188;28;20213;-59
2021/06/20 11:54:10;;;;;;;6.90;3.13;;;;;;;;;;5061909;28;20212;-57
2021/06/20 11:56:35;;;;;;;5.22;3.40;;;;;;;;;;5067351;28;20193;-58
2021/06/20 11:59:01;;;;;;;5.20;3.33;;;;;;;;;;5032339;28;20657;-58
2021/06/20 12:01:44;;;;;;;5.50;3.00;;;;;;;;;;5063691;28;20196;-57
2021/06/20 12:04:11;;;;;;;4.20;2.83;;;;;;;;;;5063027;28;20201;-57
2021/06/20 12:06:37;;;;;;;5.55;3.30;;;;;;;;;;5055979;28;20273;-57
2021/06/20 12:09:02;;;;;;;6.63;3.40;;;;;;;;;;5054056;28;20272;-58
2021/06/20 12:11:33;;;;;;;3.88;3.13;;;;;;;;;;5043647;28;20213;-59
2021/06/20 12:13:58;;;;;;;5.32;3.17;;;;;;;;;;5060708;28;20241;-58
2021/06/20 12:16:23;;;;;;;4.63;3.15;;;;;;;;;;5043527;28;21053;-57
2021/06/20 12:18:49;;;;;;;6.38;3.08;;;;;;;;;;5068662;28;20189;-58
2021/06/20 12:21:25;;;;;;;6.75;3.13;;;;;;;;;;5064795;28;20181;-57
2021/06/20 12:23:55;;;;;;;6.35;2.88;;;;;;;;;;5068106;28;20212;-57
2021/06/20 12:26:29;;;;;;;8.65;3.00;;;;;;;;;;5070223;28;20181;-58
2021/06/20 12:28:55;;;;;;;4.43;2.58;;;;;;;;;;5046191;28;20279;-58
2021/06/20 12:31:21;;;;;;;6.60;2.75;;;;;;;;;;5064403;28;20209;-57
2021/06/20 12:33:57;;;;;;;7.18;2.83;;;;;;;;;;5059637;28;20287;-57
2021/06/20 12:36:26;;;;;;;5.07;3.05;;;;;;;;;;5061717;28;20264;-57
2021/06/20 12:38:53;;;;;;;6.03;3.20;;;;;;;;;;5047398;28;20189;-58
2021/06/20 12:41:19;;;;;;;7.40;3.00;;;;;;;;;;5058754;28;20213;-57
2021/06/20 12:43:56;;;;;;;5.57;2.97;;;;;;;;;;5059335;28;20244;-57
2021/06/20 12:46:27;;;;;;;8.48;3.20;;;;;;;;;;5060484;28;20650;-58
2021/06/20 12:48:56;;;;;;;5.80;2.88;;;;;;;;;;5061108;28;20247;-57
2021/06/20 12:51:39;;;;;;;6.32;3.13;;;;;;;;;;5058051;28;20221;-57
2021/06/20 12:54:11;;;;;;;4.50;2.90;;;;;;;;;;5061187;28;20231;-58
2021/06/20 12:56:38;;;;;;;5.30;2.92;;;;;;;;;;5061371;28;20185;-57
2021/06/20 12:59:09;;;;;;;6.47;3.45;;;;;;;;;;5058877;28;20186;-57
2021/06/20 13:01:49;;;;;;;4.10;2.90;;;;;;;;;;5050194;28;20184;-58
2021/06/20 13:04:16;;;;;;;4.78;3.22;;;;;;;;;;5066458;28;20699;-57
2021/06/20 13:06:43;;;;;;;5.47;2.72;;;;;;;;;;5049199;28;20255;-57
2021/06/20 13:09:09;;;;;;;4.90;2.80;;;;;;;;;;5059195;28;20557;-57
2021/06/20 13:11:37;;;;;;;6.68;2.78;;;;;;;;;;5051450;28;20202;-57
2021/06/20 13:14:17;;;;;;;4.90;3.00;;;;;;;;;;5060699;28;20293;-57
2021/06/20 13:16:44;;;;;;;8.82;3.33;;;;;;;;;;5050267;28;20675;-57
2021/06/20 13:19:10;;;;;;;4.43;2.70;;;;;;;;;;5062847;28;20231;-57
2021/06/20 13:21:37;;;;;;;7.82;3.30;;;;;;;;;;5065356;28;20258;-59
2021/06/20 13:24:03;;;;;;;3.80;2.67;;;;;;;;;;5039975;28;20205;-57
2021/06/20 13:26:28;;;;;;;5.28;3.05;;;;;;;;;;5056305;28;20205;-58
2021/06/20 13:28:54;;;;;;;5.00;3.03;;;;;;;;;;5058712;28;20275;-57
2021/06/20 13:31:19;;;;;;;4.28;2.97;;;;;;;;;;5057060;28;20665;-57
2021/06/20 13:33:45;;;;;;;4.90;3.03;;;;;;;;;;5053042;28;20206;-56
2021/06/20 13:36:11;;;;;;;4.30;2.72;;;;;;;;;;5051700;28;20192;-56
2021/06/20 13:38:36;;;;;;;3.92;2.40;;;;;;;;;;5052264;28;20190;-56
2021/06/20 13:41:02;;;;;;;3.67;2.25;;;;;;;;;;5052890;28;20194;-57
2021/06/20 13:43:27;;;;;;;6.20;3.08;;;;;;;;;;5054060;28;20201;-56
2021/06/20 13:45:53;;;;;;;3.42;2.60;;;;;;;;;;5051616;28;20189;-57
2021/06/20 13:48:19;;;;;;;4.50;2.75;;;;;;;;;;5057408;28;20267;-57
2021/06/20 13:50:45;;;;;;;4.75;2.42;;;;;;;;;;5060553;28;20265;-56
2021/06/20 13:53:10;;;;;;;4.22;2.92;;;;;;;;;;5058299;28;20637;-57
2021/06/20 13:55:35;;;;;;;5.03;2.60;;;;;;;;;;5047203;28;20247;-56
2021/06/20 13:58:01;;;;;;;5.97;3.13;;;;;;;;;;5065851;28;20193;-56
2021/06/20 14:00:27;;;;;;;4.97;2.78;;;;;;;;;;5060889;28;20629;-57
2021/06/20 14:02:52;;;;;;;5.18;2.80;;;;;;;;;;5059671;28;20242;-58
2021/06/20 14:05:18;;;;;;;4.95;2.72;;;;;;;;;;5062432;28;20185;-58
2021/06/20 14:07:44;;;;;;;3.45;3.13;;;;;;;;;;5067257;28;20201;-57
2021/06/20 14:10:13;;;;;;;6.70;2.95;;;;;;;;;;5059491;28;20193;-59
2021/06/20 14:12:39;;;;;;;4.60;2.90;;;;;;;;;;5043771;28;20308;-57
2021/06/20 14:15:05;;;;;;;5.22;2.80;;;;;;;;;;5060624;28;20701;-58
2021/06/20 14:17:30;;;;;;;4.88;2.72;;;;;;;;;;5058645;28;20204;-58
2021/06/20 14:19:56;;;;;;;3.60;2.60;;;;;;;;;;5068238;28;20268;-58
2021/06/20 14:22:21;;;;;;;4.35;2.90;;;;;;;;;;5051342;28;20209;-57
2021/06/20 14:24:46;;;;;;;3.33;2.63;;;;;;;;;;5066871;28;20233;-57
2021/06/20 14:27:12;;;;;;;4.15;2.90;;;;;;;;;;5049337;28;20185;-57
2021/06/20 14:29:37;;;;;;;4.32;2.70;;;;;;;;;;5063080;28;20645;-57
2021/06/20 14:32:03;;;;;;;4.70;2.47;;;;;;;;;;5067649;28;20205;-57
2021/06/20 14:34:28;;;;;;;13.77;2.80;;;;;;;;;;5097545;22;20234;-57
2021/06/20 14:36:55;;;;;;;5.18;3.25;;;;;;;;;;5085217;28;20660;-58
2021/06/20 14:39:20;;;;;;;4.13;2.38;;;;;;;;;;5070313;28;20220;-58
2021/06/20 14:41:45;;;;;;;3.42;2.70;;;;;;;;;;5072769;28;20212;-57
2021/06/20 14:44:12;;;;;;;2.72;2.50;;;;;;;;;;5079353;28;20204;-60
2021/06/20 14:46:37;;;;;;;3.38;2.22;;;;;;;;;;5080603;28;20583;-56